sensor_id;sensor_type;location;lat;lon;timestamp;P1;durP1;ratioP1;P2;durP2;ratioP2
46745;SDS011;32493;50.514;9.678;2022-11-03T00:01:09;24.17;;;7.65;;
46745;SDS011;32493;50.514;9.678;2022-11-03T00:03:15;22.17;;;7.38;;
46745;SDS011;32493;50.514;9.678;2022-11-03T00:05:23;28.33;;;7.50;;
46745;SDS011;32493;50.514;9.678;2022-11-03T00:07:40;19.55;;;6.28;;
46745;SDS011;32493;50.514;9.678;2022-11-03T00:09:45;27.17;;;7.93;;
46745;SDS011;32493;50.514;9.678;2022-11-03T00:11:50;19.98;;;7.30;;
46745;SDS011;32493;50.514;9.678;2022-11-03T00:13:56;25.05;;;6.93;;
46745;SDS011;32493;50.514;9.678;2022-11-03T00:16:01;23.48;;;7.63;;
46745;SDS011;32493;50.514;9.678;2022-11-03T00:18:09;17.95;;;6.75;;
46745;SDS011;32493;50.514;9.678;2022-11-03T00:20:14;20.52;;;7.25;;
46745;SDS011;32493;50.514;9.678;2022-11-03T00:22:22;19.85;;;7.07;;
46745;SDS011;32493;50.514;9.678;2022-11-03T00:24:30;24.77;;;8.10;;
46745;SDS011;32493;50.514;9.678;2022-11-03T00:26:35;14.02;;;6.32;;
46745;SDS011;32493;50.514;9.678;2022-11-03T00:28:41;16.88;;;6.13;;
46745;SDS011;32493;50.514;9.678;2022-11-03T00:30:48;14.80;;;5.90;;
46745;SDS011;32493;50.514;9.678;2022-11-03T00:32:53;16.63;;;7.05;;
46745;SDS011;32493;50.514;9.678;2022-11-03T00:34:58;20.00;;;7.28;;
46745;SDS011;32493;50.514;9.678;2022-11-03T00:37:03;16.75;;;7.20;;
46745;SDS011;32493;50.514;9.678;2022-11-03T00:39:10;28.60;;;7.43;;
46745;SDS011;32493;50.514;9.678;2022-11-03T00:43:21;24.17;;;7.82;;
46745;SDS011;32493;50.514;9.678;2022-11-03T00:45:29;19.33;;;7.15;;
46745;SDS011;32493;50.514;9.678;2022-11-03T00:47:34;24.55;;;8.57;;
46745;SDS011;32493;50.514;9.678;2022-11-03T00:50:00;26.25;;;8.10;;
46745;SDS011;32493;50.514;9.678;2022-11-03T00:52:05;28.85;;;8.90;;
46745;SDS011;32493;50.514;9.678;2022-11-03T00:54:13;29.65;;;8.15;;
46745;SDS011;32493;50.514;9.678;2022-11-03T00:56:19;27.75;;;8.32;;
46745;SDS011;32493;50.514;9.678;2022-11-03T00:58:26;23.05;;;7.22;;
46745;SDS011;32493;50.514;9.678;2022-11-03T01:00:32;23.75;;;7.85;;
46745;SDS011;32493;50.514;9.678;2022-11-03T01:02:37;25.45;;;8.38;;
46745;SDS011;32493;50.514;9.678;2022-11-03T01:04:42;19.55;;;7.70;;
46745;SDS011;32493;50.514;9.678;2022-11-03T01:07:05;23.40;;;7.82;;
46745;SDS011;32493;50.514;9.678;2022-11-03T01:09:13;29.73;;;7.95;;
46745;SDS011;32493;50.514;9.678;2022-11-03T01:11:19;26.33;;;7.18;;
46745;SDS011;32493;50.514;9.678;2022-11-03T01:13:39;24.98;;;7.30;;
46745;SDS011;32493;50.514;9.678;2022-11-03T01:15:44;26.15;;;7.95;;
46745;SDS011;32493;50.514;9.678;2022-11-03T01:17:49;23.10;;;7.93;;
46745;SDS011;32493;50.514;9.678;2022-11-03T01:19:55;18.40;;;7.30;;
46745;SDS011;32493;50.514;9.678;2022-11-03T01:22:00;20.75;;;6.85;;
46745;SDS011;32493;50.514;9.678;2022-11-03T01:24:14;28.60;;;8.23;;
46745;SDS011;32493;50.514;9.678;2022-11-03T01:28:24;13.27;;;5.82;;
46745;SDS011;32493;50.514;9.678;2022-11-03T01:30:29;22.45;;;6.70;;
46745;SDS011;32493;50.514;9.678;2022-11-03T01:32:34;25.08;;;7.40;;
46745;SDS011;32493;50.514;9.678;2022-11-03T01:34:39;26.88;;;7.65;;
46745;SDS011;32493;50.514;9.678;2022-11-03T01:36:45;21.00;;;7.65;;
46745;SDS011;32493;50.514;9.678;2022-11-03T01:38:52;22.52;;;7.78;;
46745;SDS011;32493;50.514;9.678;2022-11-03T01:41:01;29.33;;;8.02;;
46745;SDS011;32493;50.514;9.678;2022-11-03T01:43:15;19.63;;;7.70;;
46745;SDS011;32493;50.514;9.678;2022-11-03T01:45:22;19.70;;;7.20;;
46745;SDS011;32493;50.514;9.678;2022-11-03T01:47:27;18.38;;;7.60;;
46745;SDS011;32493;50.514;9.678;2022-11-03T01:49:37;22.58;;;7.50;;
46745;SDS011;32493;50.514;9.678;2022-11-03T01:51:48;23.42;;;7.93;;
46745;SDS011;32493;50.514;9.678;2022-11-03T01:53:59;19.52;;;6.93;;
46745;SDS011;32493;50.514;9.678;2022-11-03T01:56:11;18.67;;;7.05;;
46745;SDS011;32493;50.514;9.678;2022-11-03T01:58:19;18.92;;;7.03;;
46745;SDS011;32493;50.514;9.678;2022-11-03T02:00:27;25.00;;;7.07;;
46745;SDS011;32493;50.514;9.678;2022-11-03T02:02:32;22.60;;;7.22;;
46745;SDS011;32493;50.514;9.678;2022-11-03T02:04:38;21.65;;;7.57;;
46745;SDS011;32493;50.514;9.678;2022-11-03T02:06:45;26.27;;;7.18;;
46745;SDS011;32493;50.514;9.678;2022-11-03T02:08:56;24.00;;;7.50;;
46745;SDS011;32493;50.514;9.678;2022-11-03T02:11:05;27.85;;;7.47;;
46745;SDS011;32493;50.514;9.678;2022-11-03T02:13:26;21.10;;;7.13;;
46745;SDS011;32493;50.514;9.678;2022-11-03T02:15:31;15.65;;;6.63;;
46745;SDS011;32493;50.514;9.678;2022-11-03T02:17:38;22.00;;;7.20;;
46745;SDS011;32493;50.514;9.678;2022-11-03T02:19:44;19.20;;;6.60;;
46745;SDS011;32493;50.514;9.678;2022-11-03T02:21:56;20.13;;;6.28;;
46745;SDS011;32493;50.514;9.678;2022-11-03T02:24:12;20.23;;;6.20;;
46745;SDS011;32493;50.514;9.678;2022-11-03T02:26:28;23.45;;;6.50;;
46745;SDS011;32493;50.514;9.678;2022-11-03T02:28:34;18.70;;;6.28;;
46745;SDS011;32493;50.514;9.678;2022-11-03T02:30:41;18.67;;;6.20;;
46745;SDS011;32493;50.514;9.678;2022-11-03T02:32:54;19.52;;;6.60;;
46745;SDS011;32493;50.514;9.678;2022-11-03T02:35:07;16.42;;;5.85;;
46745;SDS011;32493;50.514;9.678;2022-11-03T02:37:22;23.33;;;6.18;;
46745;SDS011;32493;50.514;9.678;2022-11-03T02:39:35;15.05;;;6.28;;
46745;SDS011;32493;50.514;9.678;2022-11-03T02:41:48;15.25;;;6.43;;
46745;SDS011;32493;50.514;9.678;2022-11-03T02:43:55;18.48;;;6.03;;
46745;SDS011;32493;50.514;9.678;2022-11-03T02:46:02;17.80;;;6.25;;
46745;SDS011;32493;50.514;9.678;2022-11-03T02:48:09;18.05;;;6.50;;
46745;SDS011;32493;50.514;9.678;2022-11-03T02:50:18;21.27;;;6.63;;
46745;SDS011;32493;50.514;9.678;2022-11-03T02:52:33;15.13;;;5.88;;
46745;SDS011;32493;50.514;9.678;2022-11-03T02:54:42;18.50;;;6.03;;
46745;SDS011;32493;50.514;9.678;2022-11-03T02:56:52;22.08;;;7.07;;
46745;SDS011;32493;50.514;9.678;2022-11-03T02:59:04;16.73;;;5.82;;
46745;SDS011;32493;50.514;9.678;2022-11-03T03:01:14;18.33;;;6.25;;
46745;SDS011;32493;50.514;9.678;2022-11-03T03:03:26;19.08;;;6.32;;
46745;SDS011;32493;50.514;9.678;2022-11-03T03:05:38;18.50;;;5.80;;
46745;SDS011;32493;50.514;9.678;2022-11-03T03:07:46;13.73;;;5.35;;
46745;SDS011;32493;50.514;9.678;2022-11-03T03:09:56;15.77;;;5.43;;
46745;SDS011;32493;50.514;9.678;2022-11-03T03:12:08;19.52;;;6.05;;
46745;SDS011;32493;50.514;9.678;2022-11-03T03:14:16;14.93;;;6.03;;
46745;SDS011;32493;50.514;9.678;2022-11-03T03:16:25;14.32;;;5.97;;
46745;SDS011;32493;50.514;9.678;2022-11-03T03:18:41;21.92;;;6.70;;
46745;SDS011;32493;50.514;9.678;2022-11-03T03:20:54;19.77;;;6.38;;
46745;SDS011;32493;50.514;9.678;2022-11-03T03:23:05;18.92;;;5.60;;
46745;SDS011;32493;50.514;9.678;2022-11-03T03:25:19;23.55;;;5.97;;
46745;SDS011;32493;50.514;9.678;2022-11-03T03:27:31;14.02;;;5.95;;
46745;SDS011;32493;50.514;9.678;2022-11-03T03:29:43;19.98;;;7.13;;
46745;SDS011;32493;50.514;9.678;2022-11-03T03:31:55;26.58;;;6.75;;
46745;SDS011;32493;50.514;9.678;2022-11-03T03:34:03;25.67;;;7.15;;
46745;SDS011;32493;50.514;9.678;2022-11-03T03:36:30;32.30;;;6.65;;
46745;SDS011;32493;50.514;9.678;2022-11-03T03:38:39;27.27;;;7.93;;
46745;SDS011;32493;50.514;9.678;2022-11-03T03:40:49;15.07;;;6.32;;
46745;SDS011;32493;50.514;9.678;2022-11-03T03:43:01;19.75;;;7.03;;
46745;SDS011;32493;50.514;9.678;2022-11-03T03:45:09;21.40;;;6.68;;
46745;SDS011;32493;50.514;9.678;2022-11-03T03:47:17;16.88;;;6.32;;
46745;SDS011;32493;50.514;9.678;2022-11-03T03:49:27;16.02;;;6.25;;
46745;SDS011;32493;50.514;9.678;2022-11-03T03:51:32;18.73;;;6.35;;
46745;SDS011;32493;50.514;9.678;2022-11-03T03:53:38;17.88;;;5.50;;
46745;SDS011;32493;50.514;9.678;2022-11-03T03:55:43;12.32;;;5.60;;
46745;SDS011;32493;50.514;9.678;2022-11-03T03:57:52;18.90;;;5.57;;
46745;SDS011;32493;50.514;9.678;2022-11-03T04:00:03;14.68;;;5.78;;
46745;SDS011;32493;50.514;9.678;2022-11-03T04:02:12;19.77;;;6.28;;
46745;SDS011;32493;50.514;9.678;2022-11-03T04:04:18;16.58;;;5.63;;
46745;SDS011;32493;50.514;9.678;2022-11-03T04:06:23;16.02;;;5.40;;
46745;SDS011;32493;50.514;9.678;2022-11-03T04:08:28;15.85;;;5.20;;
46745;SDS011;32493;50.514;9.678;2022-11-03T04:10:33;14.88;;;5.78;;
46745;SDS011;32493;50.514;9.678;2022-11-03T04:12:39;13.43;;;4.93;;
46745;SDS011;32493;50.514;9.678;2022-11-03T04:14:57;14.00;;;5.07;;
46745;SDS011;32493;50.514;9.678;2022-11-03T04:17:32;16.58;;;5.35;;
46745;SDS011;32493;50.514;9.678;2022-11-03T04:19:49;17.08;;;5.13;;
46745;SDS011;32493;50.514;9.678;2022-11-03T04:22:07;17.20;;;5.50;;
46745;SDS011;32493;50.514;9.678;2022-11-03T04:24:22;13.60;;;5.20;;
46745;SDS011;32493;50.514;9.678;2022-11-03T04:26:28;18.80;;;5.90;;
46745;SDS011;32493;50.514;9.678;2022-11-03T04:28:33;24.13;;;5.55;;
46745;SDS011;32493;50.514;9.678;2022-11-03T04:30:39;17.27;;;5.65;;
46745;SDS011;32493;50.514;9.678;2022-11-03T04:32:47;18.30;;;5.70;;
46745;SDS011;32493;50.514;9.678;2022-11-03T04:34:54;17.77;;;6.25;;
46745;SDS011;32493;50.514;9.678;2022-11-03T04:36:59;13.40;;;5.38;;
46745;SDS011;32493;50.514;9.678;2022-11-03T04:39:06;21.73;;;6.25;;
46745;SDS011;32493;50.514;9.678;2022-11-03T04:41:23;19.55;;;6.10;;
46745;SDS011;32493;50.514;9.678;2022-11-03T04:43:33;18.30;;;5.80;;
46745;SDS011;32493;50.514;9.678;2022-11-03T04:45:41;20.95;;;6.60;;
46745;SDS011;32493;50.514;9.678;2022-11-03T04:47:51;15.57;;;5.90;;
46745;SDS011;32493;50.514;9.678;2022-11-03T04:49:57;15.50;;;5.60;;
46745;SDS011;32493;50.514;9.678;2022-11-03T04:52:02;15.13;;;5.22;;
46745;SDS011;32493;50.514;9.678;2022-11-03T04:54:17;18.48;;;5.40;;
46745;SDS011;32493;50.514;9.678;2022-11-03T04:56:27;15.90;;;5.40;;
46745;SDS011;32493;50.514;9.678;2022-11-03T04:58:33;15.43;;;6.05;;
46745;SDS011;32493;50.514;9.678;2022-11-03T05:00:39;17.33;;;5.03;;
46745;SDS011;32493;50.514;9.678;2022-11-03T05:02:46;12.90;;;5.13;;
46745;SDS011;32493;50.514;9.678;2022-11-03T05:04:57;17.48;;;5.38;;
46745;SDS011;32493;50.514;9.678;2022-11-03T05:07:04;18.73;;;5.43;;
46745;SDS011;32493;50.514;9.678;2022-11-03T05:09:25;21.63;;;6.00;;
46745;SDS011;32493;50.514;9.678;2022-11-03T05:11:34;18.83;;;5.50;;
46745;SDS011;32493;50.514;9.678;2022-11-03T05:13:41;9.88;;;4.38;;
46745;SDS011;32493;50.514;9.678;2022-11-03T05:15:47;16.98;;;4.88;;
46745;SDS011;32493;50.514;9.678;2022-11-03T05:17:58;14.02;;;5.10;;
46745;SDS011;32493;50.514;9.678;2022-11-03T05:20:19;12.63;;;5.10;;
46745;SDS011;32493;50.514;9.678;2022-11-03T05:22:36;14.02;;;4.88;;
46745;SDS011;32493;50.514;9.678;2022-11-03T05:24:42;10.75;;;4.85;;
46745;SDS011;32493;50.514;9.678;2022-11-03T05:26:47;18.20;;;4.80;;
46745;SDS011;32493;50.514;9.678;2022-11-03T05:28:53;14.88;;;4.88;;
46745;SDS011;32493;50.514;9.678;2022-11-03T05:31:06;13.63;;;5.03;;
46745;SDS011;32493;50.514;9.678;2022-11-03T05:33:28;19.77;;;4.80;;
46745;SDS011;32493;50.514;9.678;2022-11-03T05:35:37;12.52;;;4.90;;
46745;SDS011;32493;50.514;9.678;2022-11-03T05:37:43;12.60;;;4.90;;
46745;SDS011;32493;50.514;9.678;2022-11-03T05:39:50;15.82;;;4.70;;
46745;SDS011;32493;50.514;9.678;2022-11-03T05:41:58;19.42;;;5.38;;
46745;SDS011;32493;50.514;9.678;2022-11-03T05:44:21;17.88;;;5.20;;
46745;SDS011;32493;50.514;9.678;2022-11-03T05:46:32;17.50;;;4.75;;
46745;SDS011;32493;50.514;9.678;2022-11-03T05:48:42;17.90;;;5.10;;
46745;SDS011;32493;50.514;9.678;2022-11-03T05:50:50;25.23;;;6.78;;
46745;SDS011;32493;50.514;9.678;2022-11-03T05:52:57;18.15;;;5.15;;
46745;SDS011;32493;50.514;9.678;2022-11-03T05:55:11;18.52;;;4.63;;
46745;SDS011;32493;50.514;9.678;2022-11-03T05:57:27;14.35;;;4.50;;
46745;SDS011;32493;50.514;9.678;2022-11-03T05:59:36;21.17;;;6.05;;
46745;SDS011;32493;50.514;9.678;2022-11-03T06:01:42;16.35;;;5.50;;
46745;SDS011;32493;50.514;9.678;2022-11-03T06:03:50;14.25;;;5.13;;
46745;SDS011;32493;50.514;9.678;2022-11-03T06:05:57;21.75;;;6.18;;
46745;SDS011;32493;50.514;9.678;2022-11-03T06:08:09;21.30;;;5.60;;
46745;SDS011;32493;50.514;9.678;2022-11-03T06:10:24;16.77;;;5.32;;
46745;SDS011;32493;50.514;9.678;2022-11-03T06:12:32;15.98;;;4.20;;
46745;SDS011;32493;50.514;9.678;2022-11-03T06:14:37;15.82;;;5.25;;
46745;SDS011;32493;50.514;9.678;2022-11-03T06:16:45;15.80;;;5.80;;
46745;SDS011;32493;50.514;9.678;2022-11-03T06:18:57;17.73;;;5.38;;
46745;SDS011;32493;50.514;9.678;2022-11-03T06:21:05;22.73;;;6.47;;
46745;SDS011;32493;50.514;9.678;2022-11-03T06:23:15;19.77;;;5.55;;
46745;SDS011;32493;50.514;9.678;2022-11-03T06:25:25;17.10;;;5.68;;
46745;SDS011;32493;50.514;9.678;2022-11-03T06:27:36;14.07;;;5.40;;
46745;SDS011;32493;50.514;9.678;2022-11-03T06:29:42;16.92;;;6.05;;
46745;SDS011;32493;50.514;9.678;2022-11-03T06:31:54;13.73;;;6.38;;
46745;SDS011;32493;50.514;9.678;2022-11-03T06:34:04;21.17;;;6.90;;
46745;SDS011;32493;50.514;9.678;2022-11-03T06:36:26;20.70;;;6.00;;
46745;SDS011;32493;50.514;9.678;2022-11-03T06:38:38;18.75;;;6.78;;
46745;SDS011;32493;50.514;9.678;2022-11-03T06:40:47;20.10;;;6.15;;
46745;SDS011;32493;50.514;9.678;2022-11-03T06:42:54;17.67;;;5.90;;
46745;SDS011;32493;50.514;9.678;2022-11-03T06:45:09;22.08;;;6.32;;
46745;SDS011;32493;50.514;9.678;2022-11-03T06:47:22;11.00;;;4.70;;
46745;SDS011;32493;50.514;9.678;2022-11-03T06:51:39;16.70;;;4.75;;
46745;SDS011;32493;50.514;9.678;2022-11-03T06:53:44;13.85;;;4.60;;
46745;SDS011;32493;50.514;9.678;2022-11-03T06:55:53;17.17;;;5.63;;
46745;SDS011;32493;50.514;9.678;2022-11-03T06:57:59;17.50;;;6.80;;
46745;SDS011;32493;50.514;9.678;2022-11-03T07:00:15;29.63;;;11.07;;
46745;SDS011;32493;50.514;9.678;2022-11-03T07:02:45;35.42;;;15.50;;
46745;SDS011;32493;50.514;9.678;2022-11-03T07:05:14;32.83;;;14.60;;
46745;SDS011;32493;50.514;9.678;2022-11-03T07:07:25;51.47;;;16.52;;
46745;SDS011;32493;50.514;9.678;2022-11-03T07:09:30;22.25;;;10.55;;
46745;SDS011;32493;50.514;9.678;2022-11-03T07:11:36;27.33;;;10.48;;
46745;SDS011;32493;50.514;9.678;2022-11-03T07:13:47;30.17;;;10.73;;
46745;SDS011;32493;50.514;9.678;2022-11-03T07:15:55;21.98;;;7.88;;
46745;SDS011;32493;50.514;9.678;2022-11-03T07:18:00;26.73;;;8.88;;
46745;SDS011;32493;50.514;9.678;2022-11-03T07:20:14;24.45;;;8.82;;
46745;SDS011;32493;50.514;9.678;2022-11-03T07:22:20;20.67;;;7.80;;
46745;SDS011;32493;50.514;9.678;2022-11-03T07:24:29;20.70;;;7.57;;
46745;SDS011;32493;50.514;9.678;2022-11-03T07:26:37;20.42;;;7.55;;
46745;SDS011;32493;50.514;9.678;2022-11-03T07:28:42;17.58;;;7.10;;
46745;SDS011;32493;50.514;9.678;2022-11-03T07:30:49;23.50;;;8.27;;
46745;SDS011;32493;50.514;9.678;2022-11-03T07:32:56;18.05;;;7.35;;
46745;SDS011;32493;50.514;9.678;2022-11-03T07:35:10;16.77;;;6.90;;
46745;SDS011;32493;50.514;9.678;2022-11-03T07:37:53;18.27;;;8.52;;
46745;SDS011;32493;50.514;9.678;2022-11-03T07:39:59;18.23;;;7.78;;
46745;SDS011;32493;50.514;9.678;2022-11-03T07:42:10;17.13;;;7.35;;
46745;SDS011;32493;50.514;9.678;2022-11-03T07:44:19;23.58;;;7.68;;
46745;SDS011;32493;50.514;9.678;2022-11-03T07:46:24;18.38;;;8.05;;
46745;SDS011;32493;50.514;9.678;2022-11-03T07:48:32;18.27;;;7.88;;
46745;SDS011;32493;50.514;9.678;2022-11-03T07:50:45;23.40;;;8.35;;
46745;SDS011;32493;50.514;9.678;2022-11-03T07:52:50;27.00;;;8.40;;
46745;SDS011;32493;50.514;9.678;2022-11-03T07:54:57;25.15;;;10.23;;
46745;SDS011;32493;50.514;9.678;2022-11-03T07:57:03;28.55;;;9.98;;
46745;SDS011;32493;50.514;9.678;2022-11-03T07:59:18;24.88;;;9.50;;
46745;SDS011;32493;50.514;9.678;2022-11-03T08:03:40;21.30;;;8.32;;
46745;SDS011;32493;50.514;9.678;2022-11-03T08:05:53;21.10;;;9.00;;
46745;SDS011;32493;50.514;9.678;2022-11-03T08:07:59;26.23;;;10.52;;
46745;SDS011;32493;50.514;9.678;2022-11-03T08:10:06;25.58;;;9.73;;
46745;SDS011;32493;50.514;9.678;2022-11-03T08:12:14;22.40;;;9.65;;
46745;SDS011;32493;50.514;9.678;2022-11-03T08:14:19;20.80;;;8.73;;
46745;SDS011;32493;50.514;9.678;2022-11-03T08:16:25;23.20;;;9.48;;
46745;SDS011;32493;50.514;9.678;2022-11-03T08:18:33;26.92;;;9.98;;
46745;SDS011;32493;50.514;9.678;2022-11-03T08:20:38;22.95;;;9.30;;
46745;SDS011;32493;50.514;9.678;2022-11-03T08:22:46;23.95;;;10.55;;
46745;SDS011;32493;50.514;9.678;2022-11-03T08:25:11;22.95;;;10.02;;
46745;SDS011;32493;50.514;9.678;2022-11-03T08:27:17;27.85;;;10.80;;
46745;SDS011;32493;50.514;9.678;2022-11-03T08:29:22;31.30;;;10.98;;
46745;SDS011;32493;50.514;9.678;2022-11-03T08:31:30;26.10;;;10.32;;
46745;SDS011;32493;50.514;9.678;2022-11-03T08:37:51;25.88;;;11.02;;
46745;SDS011;32493;50.514;9.678;2022-11-03T08:39:57;26.60;;;11.25;;
46745;SDS011;32493;50.514;9.678;2022-11-03T08:42:02;24.63;;;9.82;;
46745;SDS011;32493;50.514;9.678;2022-11-03T08:44:10;19.75;;;9.88;;
46745;SDS011;32493;50.514;9.678;2022-11-03T08:46:17;23.50;;;8.68;;
46745;SDS011;32493;50.514;9.678;2022-11-03T08:48:24;17.55;;;8.25;;
46745;SDS011;32493;50.514;9.678;2022-11-03T08:50:30;14.85;;;7.80;;
46745;SDS011;32493;50.514;9.678;2022-11-03T08:52:36;21.10;;;7.72;;
46745;SDS011;32493;50.514;9.678;2022-11-03T08:54:43;16.02;;;6.90;;
46745;SDS011;32493;50.514;9.678;2022-11-03T08:56:50;17.95;;;7.72;;
46745;SDS011;32493;50.514;9.678;2022-11-03T08:58:58;15.80;;;6.40;;
46745;SDS011;32493;50.514;9.678;2022-11-03T09:01:04;12.95;;;7.00;;
46745;SDS011;32493;50.514;9.678;2022-11-03T09:03:09;14.30;;;6.15;;
46745;SDS011;32493;50.514;9.678;2022-11-03T09:05:15;15.30;;;5.85;;
46745;SDS011;32493;50.514;9.678;2022-11-03T09:07:21;15.70;;;6.22;;
46745;SDS011;32493;50.514;9.678;2022-11-03T09:09:50;11.77;;;5.05;;
46745;SDS011;32493;50.514;9.678;2022-11-03T09:12:18;14.18;;;4.75;;
46745;SDS011;32493;50.514;9.678;2022-11-03T09:14:25;13.52;;;5.03;;
46745;SDS011;32493;50.514;9.678;2022-11-03T09:16:30;11.60;;;4.68;;
46745;SDS011;32493;50.514;9.678;2022-11-03T09:18:35;11.18;;;4.60;;
46745;SDS011;32493;50.514;9.678;2022-11-03T09:20:40;14.02;;;4.40;;
46745;SDS011;32493;50.514;9.678;2022-11-03T09:22:46;8.60;;;4.10;;
46745;SDS011;32493;50.514;9.678;2022-11-03T09:24:54;7.93;;;4.00;;
46745;SDS011;32493;50.514;9.678;2022-11-03T09:27:01;10.65;;;4.22;;
46745;SDS011;32493;50.514;9.678;2022-11-03T09:29:07;9.20;;;4.18;;
46745;SDS011;32493;50.514;9.678;2022-11-03T09:31:14;9.13;;;4.22;;
46745;SDS011;32493;50.514;9.678;2022-11-03T09:33:19;11.20;;;4.28;;
46745;SDS011;32493;50.514;9.678;2022-11-03T09:35:26;11.18;;;4.70;;
46745;SDS011;32493;50.514;9.678;2022-11-03T09:37:33;10.77;;;4.53;;
46745;SDS011;32493;50.514;9.678;2022-11-03T09:39:41;10.57;;;4.70;;
46745;SDS011;32493;50.514;9.678;2022-11-03T09:41:50;9.35;;;4.57;;
46745;SDS011;32493;50.514;9.678;2022-11-03T09:43:59;11.13;;;5.03;;
46745;SDS011;32493;50.514;9.678;2022-11-03T09:46:05;15.95;;;5.82;;
46745;SDS011;32493;50.514;9.678;2022-11-03T09:48:10;11.30;;;5.18;;
46745;SDS011;32493;50.514;9.678;2022-11-03T09:50:18;10.35;;;5.68;;
46745;SDS011;32493;50.514;9.678;2022-11-03T09:52:24;14.30;;;5.97;;
46745;SDS011;32493;50.514;9.678;2022-11-03T09:54:29;12.80;;;5.72;;
46745;SDS011;32493;50.514;9.678;2022-11-03T09:56:35;16.73;;;5.28;;
46745;SDS011;32493;50.514;9.678;2022-11-03T09:58:43;11.07;;;5.00;;
46745;SDS011;32493;50.514;9.678;2022-11-03T10:00:54;14.02;;;5.00;;
46745;SDS011;32493;50.514;9.678;2022-11-03T10:03:00;14.55;;;5.47;;
46745;SDS011;32493;50.514;9.678;2022-11-03T10:05:07;10.40;;;4.83;;
46745;SDS011;32493;50.514;9.678;2022-11-03T10:07:37;15.10;;;5.10;;
46745;SDS011;32493;50.514;9.678;2022-11-03T10:09:43;12.82;;;5.35;;
46745;SDS011;32493;50.514;9.678;2022-11-03T10:11:53;11.48;;;4.82;;
46745;SDS011;32493;50.514;9.678;2022-11-03T10:14:01;9.48;;;4.75;;
46745;SDS011;32493;50.514;9.678;2022-11-03T10:16:14;10.98;;;4.80;;
46745;SDS011;32493;50.514;9.678;2022-11-03T10:18:22;9.25;;;4.10;;
46745;SDS011;32493;50.514;9.678;2022-11-03T10:20:29;9.95;;;4.65;;
46745;SDS011;32493;50.514;9.678;2022-11-03T10:22:34;16.52;;;4.47;;
46745;SDS011;32493;50.514;9.678;2022-11-03T10:24:41;11.00;;;4.90;;
46745;SDS011;32493;50.514;9.678;2022-11-03T10:26:50;10.65;;;4.60;;
46745;SDS011;32493;50.514;9.678;2022-11-03T10:29:01;13.93;;;4.53;;
46745;SDS011;32493;50.514;9.678;2022-11-03T10:31:17;9.45;;;4.45;;
46745;SDS011;32493;50.514;9.678;2022-11-03T10:33:25;13.43;;;5.03;;
46745;SDS011;32493;50.514;9.678;2022-11-03T10:35:33;10.50;;;4.45;;
46745;SDS011;32493;50.514;9.678;2022-11-03T10:37:41;13.57;;;4.45;;
46745;SDS011;32493;50.514;9.678;2022-11-03T10:39:46;12.57;;;5.13;;
46745;SDS011;32493;50.514;9.678;2022-11-03T10:41:57;12.70;;;4.88;;
46745;SDS011;32493;50.514;9.678;2022-11-03T10:44:16;10.70;;;4.63;;
46745;SDS011;32493;50.514;9.678;2022-11-03T10:46:22;11.00;;;4.43;;
46745;SDS011;32493;50.514;9.678;2022-11-03T10:49:00;7.95;;;4.07;;
46745;SDS011;32493;50.514;9.678;2022-11-03T10:51:10;12.38;;;4.28;;
46745;SDS011;32493;50.514;9.678;2022-11-03T10:53:18;10.80;;;4.55;;
46745;SDS011;32493;50.514;9.678;2022-11-03T10:55:24;11.20;;;4.65;;
46745;SDS011;32493;50.514;9.678;2022-11-03T10:57:33;12.05;;;4.32;;
46745;SDS011;32493;50.514;9.678;2022-11-03T10:59:41;10.13;;;3.90;;
46745;SDS011;32493;50.514;9.678;2022-11-03T11:01:50;10.02;;;4.63;;
46745;SDS011;32493;50.514;9.678;2022-11-03T11:03:56;11.45;;;4.60;;
46745;SDS011;32493;50.514;9.678;2022-11-03T11:06:01;8.50;;;3.80;;
46745;SDS011;32493;50.514;9.678;2022-11-03T11:08:07;12.00;;;4.32;;
46745;SDS011;32493;50.514;9.678;2022-11-03T11:10:16;10.50;;;4.10;;
46745;SDS011;32493;50.514;9.678;2022-11-03T11:12:24;8.70;;;4.18;;
46745;SDS011;32493;50.514;9.678;2022-11-03T11:14:34;12.32;;;4.93;;
46745;SDS011;32493;50.514;9.678;2022-11-03T11:16:48;8.43;;;3.88;;
46745;SDS011;32493;50.514;9.678;2022-11-03T11:24:05;11.05;;;4.00;;
46745;SDS011;32493;50.514;9.678;2022-11-03T11:28:38;9.27;;;4.68;;
46745;SDS011;32493;50.514;9.678;2022-11-03T11:33:02;10.25;;;4.68;;
46745;SDS011;32493;50.514;9.678;2022-11-03T11:41:13;9.10;;;3.80;;
46745;SDS011;32493;50.514;9.678;2022-11-03T11:43:25;11.95;;;3.95;;
46745;SDS011;32493;50.514;9.678;2022-11-03T11:48:26;7.85;;;4.40;;
46745;SDS011;32493;50.514;9.678;2022-11-03T11:50:32;9.88;;;4.15;;
46745;SDS011;32493;50.514;9.678;2022-11-03T11:52:39;12.82;;;4.30;;
46745;SDS011;32493;50.514;9.678;2022-11-03T11:54:47;8.52;;;3.78;;
46745;SDS011;32493;50.514;9.678;2022-11-03T11:56:53;8.52;;;4.50;;
46745;SDS011;32493;50.514;9.678;2022-11-03T11:58:58;8.98;;;4.07;;
46745;SDS011;32493;50.514;9.678;2022-11-03T12:01:16;13.82;;;4.22;;
46745;SDS011;32493;50.514;9.678;2022-11-03T12:03:33;9.85;;;4.30;;
46745;SDS011;32493;50.514;9.678;2022-11-03T12:05:47;8.30;;;3.83;;
46745;SDS011;32493;50.514;9.678;2022-11-03T12:07:53;7.47;;;4.20;;
46745;SDS011;32493;50.514;9.678;2022-11-03T12:10:05;7.03;;;3.80;;
46745;SDS011;32493;50.514;9.678;2022-11-03T12:12:11;8.82;;;3.80;;
46745;SDS011;32493;50.514;9.678;2022-11-03T12:14:37;11.60;;;4.78;;
46745;SDS011;32493;50.514;9.678;2022-11-03T12:16:44;7.78;;;3.90;;
46745;SDS011;32493;50.514;9.678;2022-11-03T12:18:54;10.82;;;4.30;;
46745;SDS011;32493;50.514;9.678;2022-11-03T12:21:00;8.50;;;4.10;;
46745;SDS011;32493;50.514;9.678;2022-11-03T12:27:41;11.30;;;4.82;;
46745;SDS011;32493;50.514;9.678;2022-11-03T12:29:49;10.38;;;4.43;;
46745;SDS011;32493;50.514;9.678;2022-11-03T12:31:54;10.77;;;4.25;;
46745;SDS011;32493;50.514;9.678;2022-11-03T12:34:05;12.85;;;4.53;;
46745;SDS011;32493;50.514;9.678;2022-11-03T12:36:10;10.10;;;4.13;;
46745;SDS011;32493;50.514;9.678;2022-11-03T12:38:16;8.13;;;3.97;;
46745;SDS011;32493;50.514;9.678;2022-11-03T12:40:21;11.13;;;3.97;;
46745;SDS011;32493;50.514;9.678;2022-11-03T12:42:28;7.93;;;3.78;;
46745;SDS011;32493;50.514;9.678;2022-11-03T12:44:33;12.73;;;5.05;;
46745;SDS011;32493;50.514;9.678;2022-11-03T12:46:44;10.25;;;4.70;;
46745;SDS011;32493;50.514;9.678;2022-11-03T12:48:49;11.13;;;4.10;;
46745;SDS011;32493;50.514;9.678;2022-11-03T12:50:57;10.23;;;4.30;;
46745;SDS011;32493;50.514;9.678;2022-11-03T12:53:04;12.95;;;4.72;;
46745;SDS011;32493;50.514;9.678;2022-11-03T12:55:12;12.13;;;4.80;;
46745;SDS011;32493;50.514;9.678;2022-11-03T12:57:20;11.15;;;4.53;;
46745;SDS011;32493;50.514;9.678;2022-11-03T12:59:26;9.00;;;4.32;;
46745;SDS011;32493;50.514;9.678;2022-11-03T13:01:35;14.05;;;4.60;;
46745;SDS011;32493;50.514;9.678;2022-11-03T13:03:41;13.15;;;4.53;;
46745;SDS011;32493;50.514;9.678;2022-11-03T13:05:47;10.27;;;4.80;;
46745;SDS011;32493;50.514;9.678;2022-11-03T13:07:57;10.23;;;4.60;;
46745;SDS011;32493;50.514;9.678;2022-11-03T13:10:05;10.13;;;5.00;;
46745;SDS011;32493;50.514;9.678;2022-11-03T13:12:11;14.95;;;4.43;;
46745;SDS011;32493;50.514;9.678;2022-11-03T13:14:29;7.95;;;4.03;;
46745;SDS011;32493;50.514;9.678;2022-11-03T13:16:37;10.75;;;4.40;;
46745;SDS011;32493;50.514;9.678;2022-11-03T13:18:42;8.73;;;4.70;;
46745;SDS011;32493;50.514;9.678;2022-11-03T13:20:48;11.50;;;4.78;;
46745;SDS011;32493;50.514;9.678;2022-11-03T13:22:53;7.85;;;4.10;;
46745;SDS011;32493;50.514;9.678;2022-11-03T13:25:01;9.52;;;4.25;;